createdAt,value
2019-03-09T00:02:16.034Z,82.80
2019-03-09T00:04:45.990Z,83.00
2019-03-09T00:07:15.030Z,83.10
2019-03-09T00:09:44.435Z,83.20
2019-03-09T00:12:13.491Z,83.30
2019-03-09T00:14:42.619Z,83.50
2019-03-09T00:17:11.726Z,83.50
2019-03-09T00:19:40.736Z,83.70
2019-03-09T00:22:09.761Z,83.70
2019-03-09T00:24:49.419Z,83.70
2019-03-09T00:27:37.530Z,83.90
2019-03-09T00:30:30.449Z,84.10
2019-03-09T00:32:59.497Z,84.30
2019-03-09T00:35:28.528Z,84.50
2019-03-09T00:37:57.567Z,84.50
2019-03-09T00:40:26.606Z,84.70
2019-03-09T00:42:55.663Z,85.00
2019-03-09T00:45:24.746Z,85.00
2019-03-09T00:47:53.805Z,85.20
2019-03-09T00:50:22.881Z,85.40
2019-03-09T00:52:51.936Z,85.90
2019-03-09T00:55:20.973Z,85.70
2019-03-09T00:57:50.024Z,85.90
2019-03-09T01:00:19.754Z,85.90
2019-03-09T01:02:50.954Z,86.10
2019-03-09T01:05:19.562Z,86.20
2019-03-09T01:07:48.581Z,86.30
2019-03-09T01:10:17.798Z,86.40
2019-03-09T01:12:46.813Z,86.60
2019-03-09T01:15:15.852Z,86.80
2019-03-09T01:17:45.102Z,86.90
2019-03-09T01:20:15.361Z,87.00
2019-03-09T01:22:44.403Z,87.20
2019-03-09T01:25:13.436Z,87.50
2019-03-09T01:27:42.460Z,87.70
2019-03-09T01:30:13.781Z,87.80
2019-03-09T01:32:42.862Z,88.00
2019-03-09T01:35:31.089Z,88.30
2019-03-09T01:38:00.144Z,88.50
2019-03-09T01:40:29.226Z,88.70
2019-03-09T01:42:58.275Z,88.80
2019-03-09T01:45:28.352Z,89.00
2019-03-09T01:47:57.394Z,89.10
2019-03-09T01:50:26.443Z,89.20
2019-03-09T01:52:55.572Z,89.30
2019-03-09T01:55:24.596Z,89.40
2019-03-09T01:57:53.644Z,89.50
2019-03-09T02:00:22.721Z,89.70
2019-03-09T02:02:51.700Z,89.80
2019-03-09T02:05:20.710Z,89.90
2019-03-09T02:07:49.719Z,90.00
2019-03-09T02:10:18.761Z,90.00
2019-03-09T02:12:47.883Z,90.00
2019-03-09T02:15:17.214Z,90.10
2019-03-09T02:18:05.364Z,90.20
2019-03-09T02:20:34.426Z,90.20
2019-03-09T02:23:03.493Z,90.30
2019-03-09T02:25:32.541Z,90.30
2019-03-09T02:28:01.555Z,90.40
2019-03-09T02:30:30.672Z,90.40
2019-03-09T02:32:59.711Z,90.50
2019-03-09T02:35:28.767Z,90.50
2019-03-09T02:38:00.156Z,90.50
2019-03-09T02:40:29.315Z,90.50
2019-03-09T02:42:58.310Z,90.50
2019-03-09T02:45:27.914Z,90.50
2019-03-09T02:47:56.982Z,90.60
2019-03-09T02:50:25.976Z,90.60
2019-03-09T02:52:55.020Z,90.60
2019-03-09T02:55:24.067Z,90.60
2019-03-09T02:57:53.133Z,90.60
2019-03-09T03:00:22.252Z,90.60
2019-03-09T03:02:54.170Z,90.60
2019-03-09T03:05:23.296Z,90.60
2019-03-09T03:07:52.311Z,90.60
2019-03-09T03:10:21.377Z,90.60
2019-03-09T03:12:50.371Z,90.60
2019-03-09T03:15:44.644Z,90.60
2019-03-09T03:18:13.702Z,90.60
2019-03-09T03:20:42.742Z,90.60
2019-03-09T03:23:11.796Z,90.60
2019-03-09T03:25:40.937Z,90.60
2019-03-09T03:28:09.982Z,90.50
2019-03-09T03:30:39.116Z,90.50
2019-03-09T03:33:08.277Z,90.50
2019-03-09T03:35:37.257Z,90.50
2019-03-09T03:38:06.271Z,90.50
2019-03-09T03:40:35.391Z,90.40
2019-03-09T03:43:04.459Z,90.40
2019-03-09T03:45:33.456Z,90.40
2019-03-09T03:48:02.472Z,90.30
2019-03-09T03:50:31.490Z,90.30
2019-03-09T03:53:00.493Z,90.30
2019-03-09T03:55:29.512Z,90.30
2019-03-09T03:57:58.544Z,90.30
2019-03-09T04:00:27.643Z,90.20
2019-03-09T04:02:56.751Z,90.20
2019-03-09T04:05:25.802Z,90.20
2019-03-09T04:07:54.825Z,90.20
2019-03-09T04:10:23.823Z,90.20
2019-03-09T04:13:12.062Z,90.20
2019-03-09T04:15:41.167Z,90.20
2019-03-09T04:18:10.238Z,90.20
2019-03-09T04:20:39.272Z,90.20
2019-03-09T04:23:08.846Z,90.10
2019-03-09T04:25:37.817Z,90.10
2019-03-09T04:28:06.835Z,90.10
2019-03-09T04:30:35.888Z,90.10
2019-03-09T04:33:04.986Z,90.10
2019-03-09T04:35:34.045Z,90.00
2019-03-09T04:38:03.125Z,90.00
2019-03-09T04:40:32.134Z,90.00
2019-03-09T04:43:01.213Z,90.00
2019-03-09T04:45:30.234Z,89.80
2019-03-09T04:47:59.331Z,89.80
2019-03-09T04:50:28.397Z,89.60
2019-03-09T04:52:57.425Z,89.60
2019-03-09T04:55:26.432Z,89.40
2019-03-09T04:57:55.459Z,89.20
2019-03-09T05:00:24.484Z,89.00
2019-03-09T05:02:53.510Z,88.80
2019-03-09T05:05:22.590Z,88.60
2019-03-09T05:08:04.415Z,88.30
2019-03-09T05:10:40.446Z,88.80
2019-03-09T05:13:22.265Z,87.80
2019-03-09T05:15:51.335Z,87.70
2019-03-09T05:18:20.312Z,87.50
2019-03-09T05:20:49.355Z,87.30
2019-03-09T05:23:19.841Z,87.30
2019-03-09T05:25:48.933Z,87.20
2019-03-09T05:28:17.967Z,87.20
2019-03-09T05:30:47.069Z,87.20
2019-03-09T05:33:16.143Z,87.20
2019-03-09T05:35:45.186Z,87.20
2019-03-09T05:38:14.334Z,87.20
2019-03-09T05:40:43.345Z,87.30
2019-03-09T05:43:12.366Z,87.30
2019-03-09T05:45:41.364Z,87.30
2019-03-09T05:48:10.460Z,87.30
2019-03-09T05:50:39.543Z,87.40
2019-03-09T05:53:18.109Z,87.40
2019-03-09T05:55:47.118Z,87.50
2019-03-09T05:58:16.159Z,87.60
2019-03-09T06:00:45.280Z,87.60
2019-03-09T06:03:14.374Z,87.60
2019-03-09T06:06:03.959Z,87.60
2019-03-09T06:08:33.112Z,87.60
2019-03-09T06:11:02.201Z,87.60
2019-03-09T06:13:31.300Z,87.50
2019-03-09T06:16:00.327Z,87.40
2019-03-09T06:18:29.348Z,87.30
2019-03-09T06:20:58.345Z,87.30
2019-03-09T06:23:27.428Z,87.20
2019-03-09T06:25:56.430Z,87.10
2019-03-09T06:28:25.446Z,87.00
2019-03-09T06:30:54.506Z,87.00
2019-03-09T06:33:25.105Z,87.00
2019-03-09T06:35:57.762Z,86.90
2019-03-09T06:38:51.242Z,86.90
2019-03-09T06:41:33.474Z,87.00
2019-03-09T06:44:02.493Z,87.10
2019-03-09T06:46:31.499Z,87.10
2019-03-09T06:49:00.461Z,87.20
2019-03-09T06:51:29.410Z,87.30
2019-03-09T06:54:10.263Z,87.30
2019-03-09T06:56:39.349Z,87.40
2019-03-09T06:59:08.388Z,87.40
2019-03-09T07:01:37.406Z,87.40
2019-03-09T07:04:06.507Z,87.40
2019-03-09T07:06:35.590Z,87.40
2019-03-09T07:09:05.613Z,87.30
2019-03-09T07:11:34.731Z,87.20
2019-03-09T07:14:46.555Z,87.30
2019-03-09T07:17:15.573Z,87.20
2019-03-09T07:19:44.585Z,87.10
2019-03-09T07:22:13.636Z,87.10
2019-03-09T07:24:42.653Z,87.00
2019-03-09T07:27:11.753Z,87.00
2019-03-09T07:29:40.830Z,87.00
2019-03-09T07:32:09.854Z,86.90
2019-03-09T07:34:38.818Z,86.80
2019-03-09T07:37:07.788Z,86.70
2019-03-09T07:39:36.775Z,86.60
2019-03-09T07:42:05.770Z,86.50
2019-03-09T07:44:34.803Z,86.50
2019-03-09T07:47:03.847Z,86.40
2019-03-09T07:49:32.811Z,86.30
2019-03-09T07:52:01.865Z,86.10
2019-03-09T07:54:30.943Z,85.90
2019-03-09T07:57:00.001Z,85.80
2019-03-09T07:59:29.077Z,85.60
2019-03-09T08:01:58.071Z,85.50
2019-03-09T08:04:27.072Z,85.40
2019-03-09T08:06:56.102Z,85.20
2019-03-09T08:09:44.279Z,85.20
2019-03-09T08:12:13.337Z,85.00
2019-03-09T08:14:42.385Z,84.90
2019-03-09T08:17:11.473Z,84.70
2019-03-09T08:19:40.566Z,84.70
2019-03-09T08:22:09.606Z,84.40
2019-03-09T08:24:38.619Z,84.20
2019-03-09T08:27:07.683Z,84.00
2019-03-09T08:29:36.806Z,83.70
2019-03-09T08:32:05.932Z,84.40
2019-03-09T08:34:34.998Z,83.40
2019-03-09T08:37:04.094Z,83.00
2019-03-09T08:39:33.122Z,82.70
2019-03-09T08:42:02.126Z,82.40
2019-03-09T08:44:31.139Z,82.00
2019-03-09T08:47:00.163Z,81.90
2019-03-09T08:49:29.178Z,81.60
2019-03-09T08:51:58.316Z,81.40
2019-03-09T08:54:27.324Z,81.30
2019-03-09T08:56:56.369Z,81.10
2019-03-09T08:59:25.411Z,80.90
2019-03-09T09:01:54.493Z,80.80
2019-03-09T09:04:23.572Z,80.80
2019-03-09T09:06:52.615Z,80.70
2019-03-09T09:09:21.740Z,80.60
2019-03-09T09:11:50.761Z,80.40
2019-03-09T09:14:19.751Z,80.40
2019-03-09T09:16:48.797Z,80.20
2019-03-09T09:19:17.815Z,79.80
2019-03-09T09:21:46.874Z,79.40
2019-03-09T09:24:15.912Z,78.80
2019-03-09T09:26:44.927Z,78.10
2019-03-09T09:29:13.886Z,77.50
2019-03-09T09:31:42.948Z,77.30
2019-03-09T09:34:12.001Z,77.00
2019-03-09T09:36:41.019Z,76.80
2019-03-09T09:39:10.121Z,76.60
2019-03-09T09:41:39.162Z,76.50
2019-03-09T09:44:08.169Z,76.40
2019-03-09T09:46:37.203Z,76.10
2019-03-09T09:49:06.238Z,76.00
2019-03-09T09:51:35.305Z,75.70
2019-03-09T09:54:04.390Z,75.50
2019-03-09T09:56:33.459Z,75.50
2019-03-09T09:59:02.510Z,75.50
2019-03-09T10:01:31.582Z,75.80
2019-03-09T10:04:00.627Z,76.00
2019-03-09T10:06:29.587Z,76.10
2019-03-09T10:08:58.675Z,76.40
2019-03-09T10:11:27.692Z,76.50
2019-03-09T10:13:56.719Z,76.80
2019-03-09T10:16:25.721Z,76.90
2019-03-09T10:18:54.754Z,77.00
2019-03-09T10:21:23.752Z,77.10
2019-03-09T10:23:52.783Z,77.30
2019-03-09T10:26:24.055Z,77.20
2019-03-09T10:28:52.448Z,77.10
2019-03-09T10:31:21.454Z,77.20
2019-03-09T10:33:50.470Z,77.10
2019-03-09T10:36:19.483Z,77.00
2019-03-09T10:38:48.549Z,76.50
2019-03-09T10:41:17.663Z,76.10
2019-03-09T10:43:46.713Z,75.80
2019-03-09T10:46:15.719Z,75.00
2019-03-09T10:48:44.713Z,74.50
2019-03-09T10:51:13.711Z,74.00
2019-03-09T10:53:42.689Z,73.60
2019-03-09T10:56:11.691Z,73.20
2019-03-09T10:58:40.718Z,72.70
2019-03-09T11:01:09.729Z,72.40
2019-03-09T11:03:38.766Z,72.10
2019-03-09T11:06:07.812Z,71.80
2019-03-09T11:08:36.901Z,71.60
2019-03-09T11:11:05.964Z,71.40
2019-03-09T11:13:35.021Z,71.10
2019-03-09T11:16:04.047Z,71.70
2019-03-09T11:18:33.061Z,71.00
2019-03-09T11:21:02.086Z,70.90
2019-03-09T11:23:31.145Z,70.90
2019-03-09T11:26:00.193Z,70.70
2019-03-09T11:28:29.314Z,70.40
2019-03-09T11:30:58.374Z,70.20
2019-03-09T11:33:27.338Z,69.90
2019-03-09T11:35:56.353Z,69.50
2019-03-09T11:38:25.364Z,69.20
2019-03-09T11:40:58.558Z,69.00
2019-03-09T11:43:25.112Z,68.70
2019-03-09T11:45:54.155Z,68.50
2019-03-09T11:48:23.184Z,68.60
2019-03-09T11:50:52.135Z,68.60
2019-03-09T11:53:21.153Z,68.40
2019-03-09T11:55:50.136Z,68.40
2019-03-09T11:58:19.126Z,68.30
2019-03-09T12:00:48.629Z,68.10
2019-03-09T12:03:17.689Z,68.00
2019-03-09T12:05:46.753Z,67.90
2019-03-09T12:08:15.837Z,68.00
2019-03-09T12:10:44.899Z,68.00
2019-03-09T12:13:13.973Z,67.90
2019-03-09T12:15:43.074Z,68.00
2019-03-09T12:18:12.215Z,67.90
2019-03-09T12:20:41.354Z,68.00
2019-03-09T12:23:18.852Z,68.10
2019-03-09T12:25:47.941Z,68.30
2019-03-09T12:28:16.991Z,68.60
2019-03-09T12:30:46.004Z,68.70
2019-03-09T12:33:15.133Z,68.90
2019-03-09T12:35:44.338Z,69.00
2019-03-09T12:38:13.371Z,69.00
2019-03-09T12:40:42.343Z,69.00
2019-03-09T12:43:11.454Z,68.90
2019-03-09T12:45:40.536Z,68.80
2019-03-09T12:48:09.570Z,68.60
2019-03-09T12:50:38.643Z,68.50
2019-03-09T12:53:07.707Z,68.40
2019-03-09T12:55:36.699Z,68.20
2019-03-09T12:58:05.729Z,68.20
2019-03-09T13:00:34.700Z,68.00
2019-03-09T13:03:03.691Z,68.00
2019-03-09T13:05:32.721Z,68.00
2019-03-09T13:08:01.793Z,68.10
2019-03-09T13:10:30.834Z,68.20
2019-03-09T13:12:59.811Z,68.30
2019-03-09T13:15:28.775Z,68.50
2019-03-09T13:17:57.826Z,68.60
2019-03-09T13:20:26.828Z,68.60
2019-03-09T13:22:58.743Z,68.80
2019-03-09T13:25:27.873Z,68.90
2019-03-09T13:27:57.020Z,69.10
2019-03-09T13:30:26.109Z,69.60
2019-03-09T13:32:55.171Z,70.30
2019-03-09T13:35:24.159Z,70.80
2019-03-09T13:37:53.204Z,71.40
2019-03-09T13:40:22.237Z,71.80
2019-03-09T13:42:51.242Z,72.30
2019-03-09T13:45:20.264Z,72.60
2019-03-09T13:47:49.310Z,72.80
2019-03-09T13:50:18.357Z,73.00
2019-03-09T13:52:47.382Z,73.10
2019-03-09T13:55:16.469Z,73.20
2019-03-09T13:57:45.515Z,73.20
2019-03-09T14:00:15.093Z,73.10
2019-03-09T14:02:44.159Z,72.90
2019-03-09T14:05:13.092Z,72.80
2019-03-09T14:07:42.123Z,72.40
2019-03-09T14:10:11.585Z,72.20
2019-03-09T14:12:40.668Z,71.70
2019-03-09T14:15:11.559Z,71.10
2019-03-09T14:17:40.593Z,70.60
2019-03-09T14:20:10.003Z,70.10
2019-03-09T14:22:39.024Z,69.80
2019-03-09T14:25:08.565Z,69.60
2019-03-09T14:27:37.592Z,69.60
2019-03-09T14:30:06.827Z,69.70
2019-03-09T14:32:35.966Z,69.80
2019-03-09T14:35:05.619Z,69.90
2019-03-09T14:37:34.637Z,69.90
2019-03-09T14:40:03.785Z,70.00
2019-03-09T14:42:32.963Z,70.00
2019-03-09T14:45:02.006Z,70.00
2019-03-09T14:47:30.984Z,69.80
2019-03-09T14:50:00.031Z,69.60
2019-03-09T14:52:28.971Z,69.50
2019-03-09T14:54:58.013Z,69.20
2019-03-09T14:57:27.076Z,69.10
2019-03-09T14:59:56.104Z,68.80
2019-03-09T15:02:25.090Z,68.50
2019-03-09T15:04:54.146Z,68.00
2019-03-09T15:07:23.236Z,67.60
2019-03-09T15:09:52.700Z,67.20
2019-03-09T15:12:21.750Z,66.80
2019-03-09T15:14:50.819Z,66.50
2019-03-09T15:17:19.892Z,66.00
2019-03-09T15:19:48.989Z,65.60
2019-03-09T15:22:18.070Z,65.10
2019-03-09T15:24:47.070Z,64.70
2019-03-09T15:27:16.188Z,64.30
2019-03-09T15:29:45.254Z,63.80
2019-03-09T15:32:14.241Z,63.20
2019-03-09T15:34:43.298Z,62.30
2019-03-09T15:37:12.433Z,62.10
2019-03-09T15:39:41.489Z,61.40
2019-03-09T15:42:10.567Z,60.80
2019-03-09T15:44:39.618Z,60.30
2019-03-09T15:47:08.644Z,59.80
2019-03-09T15:49:37.658Z,59.60
2019-03-09T15:52:06.672Z,59.40
2019-03-09T15:54:35.767Z,59.30
2019-03-09T15:57:04.778Z,59.00
2019-03-09T15:59:49.006Z,58.80
2019-03-09T16:02:19.301Z,58.90
2019-03-09T16:04:48.368Z,58.70
2019-03-09T16:07:17.429Z,59.30
2019-03-09T16:09:46.425Z,58.50
2019-03-09T16:12:17.523Z,58.30
2019-03-09T16:14:46.570Z,58.10
2019-03-09T16:17:15.567Z,58.00
2019-03-09T16:19:44.609Z,58.00
2019-03-09T16:22:13.662Z,58.20
2019-03-09T16:24:42.704Z,58.40
2019-03-09T16:27:11.772Z,58.50
2019-03-09T16:29:40.818Z,58.70
2019-03-09T16:32:09.931Z,59.60
2019-03-09T16:34:38.877Z,59.20
2019-03-09T16:37:07.877Z,59.30
2019-03-09T16:39:36.887Z,59.40
2019-03-09T16:42:05.886Z,59.60
2019-03-09T16:44:34.911Z,59.80
2019-03-09T16:47:04.041Z,60.00
2019-03-09T16:49:33.105Z,60.20
2019-03-09T16:52:02.177Z,60.40
2019-03-09T16:54:31.330Z,60.60
2019-03-09T16:57:00.392Z,60.90
2019-03-09T16:59:29.396Z,61.00
2019-03-09T17:01:59.009Z,61.30
2019-03-09T17:04:28.031Z,61.50
2019-03-09T17:06:57.030Z,61.60
2019-03-09T17:09:26.001Z,61.80
2019-03-09T17:11:55.016Z,62.10
2019-03-09T17:14:24.038Z,62.20
2019-03-09T17:16:53.021Z,62.40
2019-03-09T17:19:22.101Z,62.50
2019-03-09T17:21:51.090Z,62.80
2019-03-09T17:24:20.130Z,62.90
2019-03-09T17:26:49.214Z,63.10
2019-03-09T17:29:18.228Z,63.30
2019-03-09T17:31:47.258Z,63.40
2019-03-09T17:34:16.323Z,63.70
2019-03-09T17:36:45.473Z,63.80
2019-03-09T17:39:14.566Z,64.10
2019-03-09T17:41:43.616Z,64.30
2019-03-09T17:44:12.724Z,64.50
2019-03-09T17:46:41.789Z,64.70
2019-03-09T17:49:10.876Z,65.00
2019-03-09T17:51:39.953Z,65.20
2019-03-09T17:54:09.018Z,65.80
2019-03-09T17:56:57.261Z,65.60
2019-03-09T17:59:26.274Z,65.80
2019-03-09T18:01:55.371Z,66.10
2019-03-09T18:04:24.410Z,66.40
2019-03-09T18:06:53.497Z,66.50
2019-03-09T18:09:22.497Z,66.80
2019-03-09T18:11:51.497Z,67.00
2019-03-09T18:14:20.596Z,67.20
2019-03-09T18:16:52.953Z,67.50
2019-03-09T18:19:20.313Z,67.60
2019-03-09T18:21:49.362Z,67.90
2019-03-09T18:24:18.443Z,68.10
2019-03-09T18:26:47.481Z,68.20
2019-03-09T18:29:16.533Z,68.30
2019-03-09T18:31:45.669Z,68.50
2019-03-09T18:34:33.886Z,68.80
2019-03-09T18:37:02.981Z,68.80
2019-03-09T18:39:32.049Z,69.00
2019-03-09T18:42:01.123Z,68.60
2019-03-09T18:44:30.245Z,69.30
2019-03-09T18:46:59.315Z,69.50
2019-03-09T18:49:28.433Z,69.70
2019-03-09T18:51:57.433Z,69.80
2019-03-09T18:54:26.514Z,70.00
2019-03-09T18:56:57.970Z,70.10
2019-03-09T18:59:27.028Z,70.30
2019-03-09T19:01:56.119Z,70.40
2019-03-09T19:04:25.106Z,70.50
2019-03-09T19:06:54.169Z,70.80
2019-03-09T19:09:23.215Z,71.00
2019-03-09T19:11:52.244Z,71.20
2019-03-09T19:14:21.256Z,71.30
2019-03-09T19:16:50.291Z,71.60
2019-03-09T19:19:19.374Z,71.80
2019-03-09T19:21:48.345Z,71.80
2019-03-09T19:24:17.453Z,72.00
2019-03-09T19:26:46.550Z,72.20
2019-03-09T19:29:15.643Z,72.20
2019-03-09T19:31:44.670Z,72.30
2019-03-09T19:34:13.759Z,72.50
2019-03-09T19:36:42.746Z,72.60
2019-03-09T19:39:11.791Z,72.70
2019-03-09T19:41:40.797Z,72.80
2019-03-09T19:44:09.914Z,72.70
2019-03-09T19:46:39.025Z,72.80
2019-03-09T19:49:08.085Z,72.80
2019-03-09T19:51:37.217Z,72.90
2019-03-09T19:54:25.419Z,72.90
2019-03-09T19:56:54.534Z,72.90
2019-03-09T19:59:23.595Z,72.80
2019-03-09T20:01:58.533Z,72.80
2019-03-09T20:04:29.036Z,72.70
2019-03-09T20:07:00.535Z,72.80
2019-03-09T20:09:32.000Z,72.80
2019-03-09T20:12:01.051Z,72.80
2019-03-09T20:14:30.530Z,72.80
2019-03-09T20:16:59.611Z,72.80
2019-03-09T20:19:28.678Z,72.90
2019-03-09T20:21:57.642Z,72.90
2019-03-09T20:24:45.838Z,73.00
2019-03-09T20:27:14.816Z,73.00
2019-03-09T20:29:43.869Z,73.00
2019-03-09T20:32:12.958Z,73.10
2019-03-09T20:34:41.961Z,73.20
2019-03-09T20:37:11.136Z,73.90
2019-03-09T20:39:40.313Z,73.20
2019-03-09T20:42:09.437Z,73.20
2019-03-09T20:44:38.486Z,73.20
2019-03-09T20:47:08.310Z,73.30
2019-03-09T20:49:37.568Z,73.40
2019-03-09T20:52:06.657Z,73.30
2019-03-09T20:54:35.748Z,73.40
2019-03-09T20:57:04.784Z,73.40
2019-03-09T20:59:33.801Z,73.40
2019-03-09T21:02:03.000Z,73.40
2019-03-09T21:04:32.085Z,73.40
2019-03-09T21:07:01.270Z,73.30
2019-03-09T21:09:30.290Z,73.20
2019-03-09T21:11:59.409Z,73.30
2019-03-09T21:14:28.441Z,73.20
2019-03-09T21:16:59.664Z,73.20
2019-03-09T21:19:28.278Z,73.20
2019-03-09T21:21:57.294Z,73.20
2019-03-09T21:24:26.349Z,73.20
2019-03-09T21:26:55.420Z,73.30
2019-03-09T21:29:24.512Z,73.30
2019-03-09T21:31:53.529Z,73.30
2019-03-09T21:34:22.584Z,73.30
2019-03-09T21:36:51.738Z,73.30
2019-03-09T21:39:20.899Z,73.30
2019-03-09T21:41:50.010Z,73.40
2019-03-09T21:44:21.408Z,73.40
2019-03-09T21:46:50.440Z,73.50
2019-03-09T21:49:19.455Z,73.60
2019-03-09T21:51:48.438Z,73.70
2019-03-09T21:54:36.614Z,73.80
2019-03-09T21:57:05.718Z,73.80
2019-03-09T21:59:34.725Z,73.80
2019-03-09T22:02:03.707Z,73.90
2019-03-09T22:04:33.971Z,74.00
2019-03-09T22:07:03.010Z,74.00
2019-03-09T22:09:32.078Z,74.00
2019-03-09T22:12:01.066Z,74.10
2019-03-09T22:14:30.059Z,74.30
2019-03-09T22:16:59.090Z,74.40
2019-03-09T22:19:28.124Z,74.40
2019-03-09T22:21:57.108Z,74.60
2019-03-09T22:24:26.254Z,74.60
2019-03-09T22:26:55.371Z,74.70
2019-03-09T22:29:24.458Z,74.70
2019-03-09T22:31:53.504Z,74.70
2019-03-09T22:34:23.610Z,74.70
2019-03-09T22:36:52.726Z,74.80
2019-03-09T22:39:21.875Z,74.80
2019-03-09T22:41:50.884Z,74.90
2019-03-09T22:44:31.202Z,75.00
2019-03-09T22:47:10.756Z,74.90
2019-03-09T22:49:30.947Z,75.00
2019-03-09T22:51:59.943Z,75.10
2019-03-09T22:54:29.091Z,75.20
2019-03-09T22:56:58.207Z,75.30
2019-03-09T22:59:27.271Z,75.40
2019-03-09T23:01:56.336Z,75.40
2019-03-09T23:04:25.514Z,75.50
2019-03-09T23:06:54.626Z,75.60
2019-03-09T23:09:23.755Z,75.60
2019-03-09T23:11:52.829Z,75.70
2019-03-09T23:14:21.781Z,75.70
2019-03-09T23:16:50.904Z,75.80
2019-03-09T23:19:19.973Z,75.80
2019-03-09T23:21:49.099Z,75.80
2019-03-09T23:24:18.159Z,75.80
2019-03-09T23:26:47.172Z,75.90
2019-03-09T23:29:16.176Z,75.90
2019-03-09T23:31:45.168Z,75.90
2019-03-09T23:34:14.167Z,76.00
2019-03-09T23:36:43.399Z,76.00
2019-03-09T23:39:12.415Z,76.00
2019-03-09T23:41:41.553Z,76.10
2019-03-09T23:44:10.630Z,76.10
2019-03-09T23:46:39.671Z,76.10
2019-03-09T23:49:08.714Z,76.10
2019-03-09T23:51:37.746Z,76.20
2019-03-09T23:54:06.803Z,76.20
2019-03-09T23:56:35.842Z,76.20
2019-03-09T23:59:04.842Z,76.30
